Home   Weather   USA   Point Lay   Past weeks
Flag for USA

Past Weather in Point Lay, Alaska, USA — Yesterday and Last 2 Weeks

Currently: 41 °F. Fog. (Weather station: Point Lay LRRS Airport, USA). See more current weather

Past Weather in Point Lay — Graph

°F

Point Lay Temperature Yesterday

Maximum temperature yesterday: 53 °F (at 12:56 am)
Minimum temperature yesterday: 48 °F (at 2:56 am)
Average temperature yesterday: 50 °F

High & Low Weather Summary for the Past Weeks

 TemperatureHumidityPressure
High67 °F (Jun 22, 2:56 pm)100% (Jun 10, 2:04 am)30.17 "Hg (Jun 10, 2:04 am)
Low30 °F (Jun 12, 4:56 am)52% (Jun 22, 1:56 pm)29.42 "Hg (Jun 24, 7:23 am)
Average43 °F86%29.90 "Hg
* Reported Jun 9 10:56 am — Jun 24 10:06 am, Point Lay. Weather by CustomWeather, © 2021

Note: Actual official high and low records may vary slightly from our data, if they occured in-between our weather recording intervals... More about our weather records

Point Lay Weather History for the Previous 24 Hours

Scroll right to see more
 ConditionsComfort  
Time TempWeatherWind HumidityBarometerVisibility
10:06 am
Thu, Jun 24
41 °FLow clouds.17 mph93%29.42 "Hg8 mi
9:56 am41 °FFog.18 mph93%29.43 "Hg2 mi
8:56 am42 °FPartly sunny.18 mph89%29.43 "Hg10 mi
8:44 am41 °FLow clouds.17 mph93%29.42 "Hg10 mi
8:18 am41 °FFog.16 mph93%29.42 "Hg5 mi
8:10 am39 °FFog.15 mph100%29.43 "Hg2 mi
8:01 am39 °FFog.16 mph100%29.43 "Hg1 mi
7:37 am39 °FFog.15 mph100%29.42 "Hg1 mi
7:23 am39 °FFog.14 mph100%29.42 "Hg1 mi
6:56 am40 °FLow clouds.13 mph97%29.44 "Hg10 mi
5:56 am39 °FFog.14 mph96%29.44 "Hg4 mi
5:08 am39 °FSunny.14 mph93%29.44 "Hg10 mi
4:56 am41 °FFog.16 mph93%29.45 "Hg2 mi
3:56 am41 °FSunny.12 mph93%29.46 "Hg10 mi
2:56 am41 °FSunny.15 mph96%29.47 "Hg10 mi
1:56 am43 °FSunny.13 mph93%29.47 "Hg10 mi
12:56 am46 °FSunny.18 mph86%29.48 "Hg10 mi
11:56 pm
Wed, Jun 23
48 °FSunny.17 mph86%29.48 "Hg10 mi
10:56 pm49 °FSunny.17 mph86%29.49 "Hg10 mi
9:56 pm49 °FSunny.20 mph86%29.50 "Hg10 mi
8:56 pm50 °FPartly sunny.20 mph86%29.50 "Hg10 mi
7:56 pm49 °FSunny.21 mph86%29.51 "Hg10 mi
6:56 pm51 °FPartly sunny.22 mph83%29.52 "Hg10 mi
5:56 pm53 °FSunny.20 mph77%29.53 "Hg10 mi
4:56 pm53 °FPassing clouds.17 mph77%29.54 "Hg10 mi
3:56 pm52 °FSunny.17 mph83%29.56 "Hg10 mi
2:56 pm52 °FScattered clouds.16 mph83%29.57 "Hg10 mi
1:56 pm50 °FPassing clouds.16 mph86%29.58 "Hg10 mi
12:56 pm50 °FMore clouds than sun.18 mph86%29.59 "Hg10 mi
11:56 am50 °FLight rain. Mostly cloudy.17 mph89%29.60 "Hg10 mi
Weather by CustomWeather, © 2021

See weather overview